sensor_id;sensor_type;location;lat;lon;timestamp;temperature;humidity
4052;DHT22;2040;50.924;11.604;2023-07-09T00:02:20;19.20;99.90
4052;DHT22;2040;50.924;11.604;2023-07-09T00:04:46;18.90;99.90
4052;DHT22;2040;50.924;11.604;2023-07-09T00:07:19;18.70;99.90
4052;DHT22;2040;50.924;11.604;2023-07-09T00:09:46;18.70;99.90
4052;DHT22;2040;50.924;11.604;2023-07-09T00:12:14;18.70;99.90
4052;DHT22;2040;50.924;11.604;2023-07-09T00:14:40;18.70;99.90
4052;DHT22;2040;50.924;11.604;2023-07-09T00:17:18;18.60;99.90
4052;DHT22;2040;50.924;11.604;2023-07-09T00:19:45;18.50;99.90
4052;DHT22;2040;50.924;11.604;2023-07-09T00:22:16;18.40;99.90
4052;DHT22;2040;50.924;11.604;2023-07-09T00:24:42;18.30;99.90
4052;DHT22;2040;50.924;11.604;2023-07-09T00:27:13;18.20;99.90
4052;DHT22;2040;50.924;11.604;2023-07-09T00:29:41;18.10;99.90
4052;DHT22;2040;50.924;11.604;2023-07-09T00:32:12;18.00;99.90
4052;DHT22;2040;50.924;11.604;2023-07-09T00:34:40;18.00;99.90
4052;DHT22;2040;50.924;11.604;2023-07-09T00:37:11;18.00;99.90
4052;DHT22;2040;50.924;11.604;2023-07-09T00:39:37;18.00;99.90
4052;DHT22;2040;50.924;11.604;2023-07-09T00:42:03;17.90;99.90
4052;DHT22;2040;50.924;11.604;2023-07-09T00:44:32;17.80;99.90
4052;DHT22;2040;50.924;11.604;2023-07-09T00:49:40;17.80;99.90
4052;DHT22;2040;50.924;11.604;2023-07-09T00:52:24;17.70;99.90
4052;DHT22;2040;50.924;11.604;2023-07-09T00:54:54;17.70;99.90
4052;DHT22;2040;50.924;11.604;2023-07-09T00:57:23;17.70;99.90
4052;DHT22;2040;50.924;11.604;2023-07-09T01:00:02;18.00;99.90
4052;DHT22;2040;50.924;11.604;2023-07-09T01:02:35;18.40;99.90
4052;DHT22;2040;50.924;11.604;2023-07-09T01:05:02;18.50;99.90
4052;DHT22;2040;50.924;11.604;2023-07-09T01:07:29;18.60;99.90
4052;DHT22;2040;50.924;11.604;2023-07-09T01:09:54;18.50;99.90
4052;DHT22;2040;50.924;11.604;2023-07-09T01:12:21;18.30;99.90
4052;DHT22;2040;50.924;11.604;2023-07-09T01:14:48;18.20;99.90
4052;DHT22;2040;50.924;11.604;2023-07-09T01:17:17;18.00;99.90
4052;DHT22;2040;50.924;11.604;2023-07-09T01:19:44;17.70;99.90
4052;DHT22;2040;50.924;11.604;2023-07-09T01:22:16;17.60;99.90
4052;DHT22;2040;50.924;11.604;2023-07-09T01:27:11;17.30;99.90
4052;DHT22;2040;50.924;11.604;2023-07-09T01:29:37;17.30;99.90
4052;DHT22;2040;50.924;11.604;2023-07-09T01:32:03;17.20;99.90
4052;DHT22;2040;50.924;11.604;2023-07-09T01:34:29;17.10;99.90
4052;DHT22;2040;50.924;11.604;2023-07-09T01:36:56;17.10;99.90
4052;DHT22;2040;50.924;11.604;2023-07-09T01:39:21;17.20;99.90
4052;DHT22;2040;50.924;11.604;2023-07-09T01:41:47;17.10;99.90
4052;DHT22;2040;50.924;11.604;2023-07-09T01:44:14;17.40;99.90
4052;DHT22;2040;50.924;11.604;2023-07-09T01:46:40;17.40;99.90
4052;DHT22;2040;50.924;11.604;2023-07-09T01:49:07;17.40;99.90
4052;DHT22;2040;50.924;11.604;2023-07-09T01:51:34;17.30;99.90
4052;DHT22;2040;50.924;11.604;2023-07-09T01:54:01;17.20;99.90
4052;DHT22;2040;50.924;11.604;2023-07-09T01:56:27;17.10;99.90
4052;DHT22;2040;50.924;11.604;2023-07-09T01:58:52;17.00;99.90
4052;DHT22;2040;50.924;11.604;2023-07-09T02:01:18;17.00;99.90
4052;DHT22;2040;50.924;11.604;2023-07-09T02:03:45;16.90;99.90
4052;DHT22;2040;50.924;11.604;2023-07-09T02:06:11;16.80;99.90
4052;DHT22;2040;50.924;11.604;2023-07-09T02:08:38;16.80;99.90
4052;DHT22;2040;50.924;11.604;2023-07-09T02:11:04;16.70;99.90
4052;DHT22;2040;50.924;11.604;2023-07-09T02:13:29;16.50;99.90
4052;DHT22;2040;50.924;11.604;2023-07-09T02:15:55;16.50;99.90
4052;DHT22;2040;50.924;11.604;2023-07-09T02:18:20;16.50;99.90
4052;DHT22;2040;50.924;11.604;2023-07-09T02:20:46;16.60;99.90
4052;DHT22;2040;50.924;11.604;2023-07-09T02:23:12;16.60;99.90
4052;DHT22;2040;50.924;11.604;2023-07-09T02:25:37;17.00;99.90
4052;DHT22;2040;50.924;11.604;2023-07-09T02:28:03;16.80;99.90
4052;DHT22;2040;50.924;11.604;2023-07-09T02:30:29;17.00;99.90
4052;DHT22;2040;50.924;11.604;2023-07-09T02:32:55;17.00;99.90
4052;DHT22;2040;50.924;11.604;2023-07-09T02:35:21;16.90;99.90
4052;DHT22;2040;50.924;11.604;2023-07-09T02:37:47;16.80;99.90
4052;DHT22;2040;50.924;11.604;2023-07-09T02:40:15;16.60;99.90
4052;DHT22;2040;50.924;11.604;2023-07-09T02:42:41;16.50;99.90
4052;DHT22;2040;50.924;11.604;2023-07-09T02:45:06;16.40;99.90
4052;DHT22;2040;50.924;11.604;2023-07-09T02:47:32;16.20;99.90
4052;DHT22;2040;50.924;11.604;2023-07-09T02:49:58;16.10;99.90
4052;DHT22;2040;50.924;11.604;2023-07-09T02:52:23;16.10;99.90
4052;DHT22;2040;50.924;11.604;2023-07-09T02:54:49;16.10;99.90
4052;DHT22;2040;50.924;11.604;2023-07-09T02:57:15;15.90;99.90
4052;DHT22;2040;50.924;11.604;2023-07-09T02:59:41;15.80;99.90
4052;DHT22;2040;50.924;11.604;2023-07-09T03:02:07;15.80;99.90
4052;DHT22;2040;50.924;11.604;2023-07-09T03:04:32;15.80;99.90
4052;DHT22;2040;50.924;11.604;2023-07-09T03:06:58;15.70;99.90
4052;DHT22;2040;50.924;11.604;2023-07-09T03:09:25;15.70;99.90
4052;DHT22;2040;50.924;11.604;2023-07-09T03:11:52;15.70;99.90
4052;DHT22;2040;50.924;11.604;2023-07-09T03:14:17;15.70;99.90
4052;DHT22;2040;50.924;11.604;2023-07-09T03:16:43;15.70;99.90
4052;DHT22;2040;50.924;11.604;2023-07-09T03:19:09;15.70;99.90
4052;DHT22;2040;50.924;11.604;2023-07-09T03:21:35;15.70;99.90
4052;DHT22;2040;50.924;11.604;2023-07-09T03:24:00;15.70;99.90
4052;DHT22;2040;50.924;11.604;2023-07-09T03:26:26;15.60;99.90
4052;DHT22;2040;50.924;11.604;2023-07-09T03:28:52;15.60;99.90
4052;DHT22;2040;50.924;11.604;2023-07-09T03:31:19;15.70;99.90
4052;DHT22;2040;50.924;11.604;2023-07-09T03:33:49;15.70;99.90
4052;DHT22;2040;50.924;11.604;2023-07-09T03:36:15;15.80;99.90
4052;DHT22;2040;50.924;11.604;2023-07-09T03:38:41;15.80;99.90
4052;DHT22;2040;50.924;11.604;2023-07-09T03:41:06;15.70;99.90
4052;DHT22;2040;50.924;11.604;2023-07-09T03:43:32;15.80;99.90
4052;DHT22;2040;50.924;11.604;2023-07-09T03:45:58;15.80;99.90
4052;DHT22;2040;50.924;11.604;2023-07-09T03:48:23;16.00;99.90
4052;DHT22;2040;50.924;11.604;2023-07-09T03:50:49;15.90;99.90
4052;DHT22;2040;50.924;11.604;2023-07-09T03:53:15;15.90;99.90
4052;DHT22;2040;50.924;11.604;2023-07-09T03:55:41;15.80;99.90
4052;DHT22;2040;50.924;11.604;2023-07-09T03:58:07;15.80;99.90
4052;DHT22;2040;50.924;11.604;2023-07-09T04:00:33;15.80;99.90
4052;DHT22;2040;50.924;11.604;2023-07-09T04:02:59;15.80;99.90
4052;DHT22;2040;50.924;11.604;2023-07-09T04:05:26;15.80;99.90
4052;DHT22;2040;50.924;11.604;2023-07-09T04:07:52;15.80;99.90
4052;DHT22;2040;50.924;11.604;2023-07-09T04:10:18;15.80;99.90
4052;DHT22;2040;50.924;11.604;2023-07-09T04:12:44;15.80;99.90
4052;DHT22;2040;50.924;11.604;2023-07-09T04:15:10;15.80;99.90
4052;DHT22;2040;50.924;11.604;2023-07-09T04:17:38;15.70;99.90
4052;DHT22;2040;50.924;11.604;2023-07-09T04:20:04;15.70;99.90
4052;DHT22;2040;50.924;11.604;2023-07-09T04:22:33;15.70;99.90
4052;DHT22;2040;50.924;11.604;2023-07-09T04:25:00;15.70;99.90
4052;DHT22;2040;50.924;11.604;2023-07-09T04:27:25;15.70;99.90
4052;DHT22;2040;50.924;11.604;2023-07-09T04:29:54;15.70;99.90
4052;DHT22;2040;50.924;11.604;2023-07-09T04:32:20;15.70;99.90
4052;DHT22;2040;50.924;11.604;2023-07-09T04:34:46;15.70;99.90
4052;DHT22;2040;50.924;11.604;2023-07-09T04:37:12;15.80;99.90
4052;DHT22;2040;50.924;11.604;2023-07-09T04:39:39;15.80;99.90
4052;DHT22;2040;50.924;11.604;2023-07-09T04:42:06;15.80;99.90
4052;DHT22;2040;50.924;11.604;2023-07-09T04:44:32;15.80;99.90
4052;DHT22;2040;50.924;11.604;2023-07-09T04:46:58;15.80;99.90
4052;DHT22;2040;50.924;11.604;2023-07-09T04:49:24;15.80;99.90
4052;DHT22;2040;50.924;11.604;2023-07-09T04:51:49;15.80;99.90
4052;DHT22;2040;50.924;11.604;2023-07-09T04:54:15;15.80;99.90
4052;DHT22;2040;50.924;11.604;2023-07-09T04:56:41;15.90;99.90
4052;DHT22;2040;50.924;11.604;2023-07-09T04:59:10;15.90;99.90
4052;DHT22;2040;50.924;11.604;2023-07-09T05:01:36;16.00;99.90
4052;DHT22;2040;50.924;11.604;2023-07-09T05:04:02;16.00;99.90
4052;DHT22;2040;50.924;11.604;2023-07-09T05:06:27;16.10;99.90
4052;DHT22;2040;50.924;11.604;2023-07-09T05:08:53;16.10;99.90
4052;DHT22;2040;50.924;11.604;2023-07-09T05:11:18;16.20;99.90
4052;DHT22;2040;50.924;11.604;2023-07-09T05:13:44;16.30;99.90
4052;DHT22;2040;50.924;11.604;2023-07-09T05:16:09;16.30;99.90
4052;DHT22;2040;50.924;11.604;2023-07-09T05:18:35;16.40;99.90
4052;DHT22;2040;50.924;11.604;2023-07-09T05:21:01;16.50;99.90
4052;DHT22;2040;50.924;11.604;2023-07-09T05:23:26;16.50;99.90
4052;DHT22;2040;50.924;11.604;2023-07-09T05:25:57;16.50;99.90
4052;DHT22;2040;50.924;11.604;2023-07-09T05:28:23;16.60;99.90
4052;DHT22;2040;50.924;11.604;2023-07-09T05:30:48;16.60;99.90
4052;DHT22;2040;50.924;11.604;2023-07-09T05:33:15;16.70;99.90
4052;DHT22;2040;50.924;11.604;2023-07-09T05:35:42;16.70;99.90
4052;DHT22;2040;50.924;11.604;2023-07-09T05:38:07;16.80;99.90
4052;DHT22;2040;50.924;11.604;2023-07-09T05:40:33;17.00;99.90
4052;DHT22;2040;50.924;11.604;2023-07-09T05:42:59;17.30;99.90
4052;DHT22;2040;50.924;11.604;2023-07-09T05:45:24;17.40;99.90
4052;DHT22;2040;50.924;11.604;2023-07-09T05:47:50;17.50;99.90
4052;DHT22;2040;50.924;11.604;2023-07-09T05:50:15;17.70;99.90
4052;DHT22;2040;50.924;11.604;2023-07-09T05:52:41;17.80;99.90
4052;DHT22;2040;50.924;11.604;2023-07-09T05:55:07;17.80;99.90
4052;DHT22;2040;50.924;11.604;2023-07-09T05:57:32;17.90;99.90
4052;DHT22;2040;50.924;11.604;2023-07-09T05:59:58;17.90;99.90
4052;DHT22;2040;50.924;11.604;2023-07-09T06:02:23;18.10;99.90
4052;DHT22;2040;50.924;11.604;2023-07-09T06:04:49;18.20;99.90
4052;DHT22;2040;50.924;11.604;2023-07-09T06:07:17;18.40;99.90
4052;DHT22;2040;50.924;11.604;2023-07-09T06:09:44;18.50;99.90
4052;DHT22;2040;50.924;11.604;2023-07-09T06:12:11;18.60;99.90
4052;DHT22;2040;50.924;11.604;2023-07-09T06:14:36;18.70;99.90
4052;DHT22;2040;50.924;11.604;2023-07-09T06:17:02;18.80;99.90
4052;DHT22;2040;50.924;11.604;2023-07-09T06:19:28;19.00;99.90
4052;DHT22;2040;50.924;11.604;2023-07-09T06:21:53;19.00;99.90
4052;DHT22;2040;50.924;11.604;2023-07-09T06:24:19;19.10;99.90
4052;DHT22;2040;50.924;11.604;2023-07-09T06:26:44;19.30;99.90
4052;DHT22;2040;50.924;11.604;2023-07-09T06:29:10;19.40;99.90
4052;DHT22;2040;50.924;11.604;2023-07-09T06:31:42;19.50;99.90
4052;DHT22;2040;50.924;11.604;2023-07-09T06:34:17;19.80;99.90
4052;DHT22;2040;50.924;11.604;2023-07-09T06:36:56;19.90;99.90
4052;DHT22;2040;50.924;11.604;2023-07-09T06:39:50;20.10;99.90
4052;DHT22;2040;50.924;11.604;2023-07-09T06:42:16;20.30;99.90
4052;DHT22;2040;50.924;11.604;2023-07-09T06:44:43;20.30;99.90
4052;DHT22;2040;50.924;11.604;2023-07-09T06:47:09;20.30;99.90
4052;DHT22;2040;50.924;11.604;2023-07-09T06:49:38;20.50;99.90
4052;DHT22;2040;50.924;11.604;2023-07-09T06:52:25;20.70;99.90
4052;DHT22;2040;50.924;11.604;2023-07-09T06:55:00;20.90;99.90
4052;DHT22;2040;50.924;11.604;2023-07-09T06:57:49;21.10;99.90
4052;DHT22;2040;50.924;11.604;2023-07-09T07:00:15;21.30;99.90
4052;DHT22;2040;50.924;11.604;2023-07-09T07:02:41;21.30;99.90
4052;DHT22;2040;50.924;11.604;2023-07-09T07:05:06;21.30;99.90
4052;DHT22;2040;50.924;11.604;2023-07-09T07:07:32;21.50;99.90
4052;DHT22;2040;50.924;11.604;2023-07-09T07:09:58;21.50;99.90
4052;DHT22;2040;50.924;11.604;2023-07-09T07:12:28;21.70;99.90
4052;DHT22;2040;50.924;11.604;2023-07-09T07:14:55;21.80;99.90
4052;DHT22;2040;50.924;11.604;2023-07-09T07:17:22;21.90;99.90
4052;DHT22;2040;50.924;11.604;2023-07-09T07:19:49;22.00;99.90
4052;DHT22;2040;50.924;11.604;2023-07-09T07:22:14;22.00;99.90
4052;DHT22;2040;50.924;11.604;2023-07-09T07:24:40;22.10;99.90
4052;DHT22;2040;50.924;11.604;2023-07-09T07:27:08;22.30;99.90
4052;DHT22;2040;50.924;11.604;2023-07-09T07:29:33;22.60;99.90
4052;DHT22;2040;50.924;11.604;2023-07-09T07:31:59;22.80;99.90
4052;DHT22;2040;50.924;11.604;2023-07-09T07:34:26;23.10;99.90
4052;DHT22;2040;50.924;11.604;2023-07-09T07:36:51;23.10;99.90
4052;DHT22;2040;50.924;11.604;2023-07-09T07:39:17;23.20;99.90
4052;DHT22;2040;50.924;11.604;2023-07-09T07:41:42;23.30;99.90
4052;DHT22;2040;50.924;11.604;2023-07-09T07:44:08;23.30;99.90
4052;DHT22;2040;50.924;11.604;2023-07-09T07:46:34;23.30;99.90
4052;DHT22;2040;50.924;11.604;2023-07-09T07:49:00;23.50;99.90
4052;DHT22;2040;50.924;11.604;2023-07-09T07:51:26;23.60;99.90
4052;DHT22;2040;50.924;11.604;2023-07-09T07:53:52;23.90;99.90
4052;DHT22;2040;50.924;11.604;2023-07-09T07:56:18;23.90;99.90
4052;DHT22;2040;50.924;11.604;2023-07-09T07:58:44;24.10;99.90
4052;DHT22;2040;50.924;11.604;2023-07-09T08:01:11;24.20;99.90
4052;DHT22;2040;50.924;11.604;2023-07-09T08:03:36;24.30;99.90
4052;DHT22;2040;50.924;11.604;2023-07-09T08:06:02;24.60;99.90
4052;DHT22;2040;50.924;11.604;2023-07-09T08:08:27;24.70;99.90
4052;DHT22;2040;50.924;11.604;2023-07-09T08:11:04;24.80;99.90
4052;DHT22;2040;50.924;11.604;2023-07-09T08:13:37;24.80;99.90
4052;DHT22;2040;50.924;11.604;2023-07-09T08:16:04;25.10;99.90
4052;DHT22;2040;50.924;11.604;2023-07-09T08:18:30;25.30;99.90
4052;DHT22;2040;50.924;11.604;2023-07-09T08:20:56;25.40;99.90
4052;DHT22;2040;50.924;11.604;2023-07-09T08:23:21;25.50;99.90
4052;DHT22;2040;50.924;11.604;2023-07-09T08:25:54;25.50;99.90
4052;DHT22;2040;50.924;11.604;2023-07-09T08:28:20;25.70;99.90
4052;DHT22;2040;50.924;11.604;2023-07-09T08:30:46;25.90;99.90
4052;DHT22;2040;50.924;11.604;2023-07-09T08:33:11;26.10;99.90
4052;DHT22;2040;50.924;11.604;2023-07-09T08:35:37;26.30;99.90
4052;DHT22;2040;50.924;11.604;2023-07-09T08:38:03;26.50;99.90
4052;DHT22;2040;50.924;11.604;2023-07-09T08:40:29;26.70;99.90
4052;DHT22;2040;50.924;11.604;2023-07-09T08:43:13;26.90;99.90
4052;DHT22;2040;50.924;11.604;2023-07-09T08:46:01;27.00;99.90
4052;DHT22;2040;50.924;11.604;2023-07-09T08:48:37;27.30;99.90
4052;DHT22;2040;50.924;11.604;2023-07-09T08:51:25;27.40;99.90
4052;DHT22;2040;50.924;11.604;2023-07-09T08:53:57;27.50;99.90
4052;DHT22;2040;50.924;11.604;2023-07-09T08:56:24;27.90;99.90
4052;DHT22;2040;50.924;11.604;2023-07-09T08:58:53;27.90;99.90
4052;DHT22;2040;50.924;11.604;2023-07-09T09:01:23;28.20;99.90
4052;DHT22;2040;50.924;11.604;2023-07-09T09:03:52;28.50;99.90
4052;DHT22;2040;50.924;11.604;2023-07-09T09:06:30;28.60;99.90
4052;DHT22;2040;50.924;11.604;2023-07-09T09:14:17;29.20;99.90
4052;DHT22;2040;50.924;11.604;2023-07-09T09:16:45;29.40;99.90
4052;DHT22;2040;50.924;11.604;2023-07-09T09:19:30;29.70;99.90
4052;DHT22;2040;50.924;11.604;2023-07-09T09:22:05;29.80;99.90
4052;DHT22;2040;50.924;11.604;2023-07-09T09:24:41;30.10;99.90
4052;DHT22;2040;50.924;11.604;2023-07-09T09:27:11;30.20;99.90
4052;DHT22;2040;50.924;11.604;2023-07-09T09:29:36;30.40;99.90
4052;DHT22;2040;50.924;11.604;2023-07-09T09:32:20;30.60;99.90
4052;DHT22;2040;50.924;11.604;2023-07-09T09:34:47;30.70;99.90
4052;DHT22;2040;50.924;11.604;2023-07-09T09:37:28;30.90;99.90
4052;DHT22;2040;50.924;11.604;2023-07-09T09:39:54;31.10;99.90
4052;DHT22;2040;50.924;11.604;2023-07-09T09:42:20;31.40;99.90
4052;DHT22;2040;50.924;11.604;2023-07-09T09:44:46;31.60;99.90
4052;DHT22;2040;50.924;11.604;2023-07-09T09:47:12;31.90;99.90
4052;DHT22;2040;50.924;11.604;2023-07-09T09:49:39;31.90;99.90
4052;DHT22;2040;50.924;11.604;2023-07-09T09:52:14;32.00;99.90
4052;DHT22;2040;50.924;11.604;2023-07-09T09:54:43;32.10;99.90
4052;DHT22;2040;50.924;11.604;2023-07-09T09:57:17;32.20;99.90
4052;DHT22;2040;50.924;11.604;2023-07-09T09:59:45;32.40;99.10
4052;DHT22;2040;50.924;11.604;2023-07-09T10:02:17;32.50;99.60
4052;DHT22;2040;50.924;11.604;2023-07-09T10:04:44;32.60;99.60
4052;DHT22;2040;50.924;11.604;2023-07-09T10:07:19;32.80;98.40
4052;DHT22;2040;50.924;11.604;2023-07-09T10:09:52;33.00;98.30
4052;DHT22;2040;50.924;11.604;2023-07-09T10:12:36;32.90;95.50
4052;DHT22;2040;50.924;11.604;2023-07-09T10:15:23;32.90;95.40
4052;DHT22;2040;50.924;11.604;2023-07-09T10:18:03;32.90;94.70
4052;DHT22;2040;50.924;11.604;2023-07-09T10:20:42;32.90;92.50
4052;DHT22;2040;50.924;11.604;2023-07-09T10:23:28;32.90;93.00
4052;DHT22;2040;50.924;11.604;2023-07-09T10:26:02;33.00;93.30
4052;DHT22;2040;50.924;11.604;2023-07-09T10:31:24;33.10;92.00
4052;DHT22;2040;50.924;11.604;2023-07-09T10:37:15;33.00;93.10
4052;DHT22;2040;50.924;11.604;2023-07-09T10:39:52;32.90;91.10
4052;DHT22;2040;50.924;11.604;2023-07-09T10:42:43;32.80;87.80
4052;DHT22;2040;50.924;11.604;2023-07-09T10:45:49;32.60;90.00
4052;DHT22;2040;50.924;11.604;2023-07-09T10:48:34;32.80;88.10
4052;DHT22;2040;50.924;11.604;2023-07-09T10:51:01;32.80;86.20
4052;DHT22;2040;50.924;11.604;2023-07-09T10:53:44;33.00;86.90
4052;DHT22;2040;50.924;11.604;2023-07-09T10:56:14;33.30;86.90
4052;DHT22;2040;50.924;11.604;2023-07-09T10:58:50;33.30;83.40
4052;DHT22;2040;50.924;11.604;2023-07-09T11:01:25;33.40;85.10
4052;DHT22;2040;50.924;11.604;2023-07-09T11:03:56;33.60;81.70
4052;DHT22;2040;50.924;11.604;2023-07-09T11:06:37;33.90;85.70
4052;DHT22;2040;50.924;11.604;2023-07-09T11:09:11;34.10;82.70
4052;DHT22;2040;50.924;11.604;2023-07-09T11:11:43;34.20;81.70
4052;DHT22;2040;50.924;11.604;2023-07-09T11:14:37;34.30;81.30
4052;DHT22;2040;50.924;11.604;2023-07-09T11:17:11;34.50;82.00
4052;DHT22;2040;50.924;11.604;2023-07-09T11:19:47;34.80;81.50
4052;DHT22;2040;50.924;11.604;2023-07-09T11:22:26;35.00;80.60
4052;DHT22;2040;50.924;11.604;2023-07-09T11:25:11;34.90;77.00
4052;DHT22;2040;50.924;11.604;2023-07-09T11:28:01;34.90;78.80
4052;DHT22;2040;50.924;11.604;2023-07-09T11:30:28;34.80;75.50
4052;DHT22;2040;50.924;11.604;2023-07-09T11:32:59;34.90;78.10
4052;DHT22;2040;50.924;11.604;2023-07-09T11:35:42;35.10;79.80
4052;DHT22;2040;50.924;11.604;2023-07-09T11:38:20;35.20;76.10
4052;DHT22;2040;50.924;11.604;2023-07-09T11:44:29;35.70;79.90
4052;DHT22;2040;50.924;11.604;2023-07-09T11:47:27;36.00;78.10
4052;DHT22;2040;50.924;11.604;2023-07-09T11:50:16;36.10;77.00
4052;DHT22;2040;50.924;11.604;2023-07-09T11:52:54;36.00;78.50
4052;DHT22;2040;50.924;11.604;2023-07-09T11:55:44;36.00;77.30
4052;DHT22;2040;50.924;11.604;2023-07-09T11:58:15;36.00;76.20
4052;DHT22;2040;50.924;11.604;2023-07-09T12:00:55;36.00;74.10
4052;DHT22;2040;50.924;11.604;2023-07-09T12:03:39;36.10;74.00
4052;DHT22;2040;50.924;11.604;2023-07-09T12:06:28;36.20;75.20
4052;DHT22;2040;50.924;11.604;2023-07-09T12:09:08;36.40;75.50
4052;DHT22;2040;50.924;11.604;2023-07-09T12:11:50;36.70;73.30
4052;DHT22;2040;50.924;11.604;2023-07-09T12:14:29;36.80;73.30
4052;DHT22;2040;50.924;11.604;2023-07-09T12:17:11;36.80;71.20
4052;DHT22;2040;50.924;11.604;2023-07-09T12:19:40;36.20;67.80
4052;DHT22;2040;50.924;11.604;2023-07-09T12:22:20;36.30;70.80
4052;DHT22;2040;50.924;11.604;2023-07-09T12:24:50;36.40;70.20
4052;DHT22;2040;50.924;11.604;2023-07-09T12:27:22;36.30;71.50
4052;DHT22;2040;50.924;11.604;2023-07-09T12:29:52;36.50;72.10
4052;DHT22;2040;50.924;11.604;2023-07-09T12:32:18;36.50;69.30
4052;DHT22;2040;50.924;11.604;2023-07-09T12:34:51;36.80;73.30
4052;DHT22;2040;50.924;11.604;2023-07-09T12:37:21;37.10;66.30
4052;DHT22;2040;50.924;11.604;2023-07-09T12:39:59;36.90;70.10
4052;DHT22;2040;50.924;11.604;2023-07-09T12:42:34;36.90;68.00
4052;DHT22;2040;50.924;11.604;2023-07-09T12:45:01;37.10;66.50
4052;DHT22;2040;50.924;11.604;2023-07-09T12:47:27;37.20;68.60
4052;DHT22;2040;50.924;11.604;2023-07-09T12:50:02;37.30;68.80
4052;DHT22;2040;50.924;11.604;2023-07-09T12:52:28;37.40;67.30
4052;DHT22;2040;50.924;11.604;2023-07-09T12:54:59;37.50;68.40
4052;DHT22;2040;50.924;11.604;2023-07-09T12:57:25;37.50;65.00
4052;DHT22;2040;50.924;11.604;2023-07-09T12:59:55;37.50;65.30
4052;DHT22;2040;50.924;11.604;2023-07-09T13:02:26;37.50;68.40
4052;DHT22;2040;50.924;11.604;2023-07-09T13:05:02;37.80;68.10
4052;DHT22;2040;50.924;11.604;2023-07-09T13:07:34;37.30;64.20
4052;DHT22;2040;50.924;11.604;2023-07-09T13:10:16;36.70;66.40
4052;DHT22;2040;50.924;11.604;2023-07-09T13:12:49;36.50;64.00
4052;DHT22;2040;50.924;11.604;2023-07-09T13:15:30;35.90;68.70
4052;DHT22;2040;50.924;11.604;2023-07-09T13:18:01;35.70;68.70
4052;DHT22;2040;50.924;11.604;2023-07-09T13:20:28;35.60;67.30
4052;DHT22;2040;50.924;11.604;2023-07-09T13:22:55;35.50;66.60
4052;DHT22;2040;50.924;11.604;2023-07-09T13:25:23;35.40;68.10
4052;DHT22;2040;50.924;11.604;2023-07-09T13:27:49;35.50;68.90
4052;DHT22;2040;50.924;11.604;2023-07-09T13:30:15;35.60;66.30
4052;DHT22;2040;50.924;11.604;2023-07-09T13:32:40;35.60;64.90
4052;DHT22;2040;50.924;11.604;2023-07-09T13:35:17;35.30;66.10
4052;DHT22;2040;50.924;11.604;2023-07-09T13:37:44;35.20;67.30
4052;DHT22;2040;50.924;11.604;2023-07-09T13:40:12;34.70;68.30
4052;DHT22;2040;50.924;11.604;2023-07-09T13:42:39;34.60;69.20
4052;DHT22;2040;50.924;11.604;2023-07-09T13:45:24;34.30;68.30
4052;DHT22;2040;50.924;11.604;2023-07-09T13:47:51;34.20;69.60
4052;DHT22;2040;50.924;11.604;2023-07-09T13:50:20;34.40;69.50
4052;DHT22;2040;50.924;11.604;2023-07-09T13:52:46;34.60;69.00
4052;DHT22;2040;50.924;11.604;2023-07-09T13:55:18;34.70;68.40
4052;DHT22;2040;50.924;11.604;2023-07-09T13:57:45;34.80;65.90
4052;DHT22;2040;50.924;11.604;2023-07-09T14:00:11;35.00;66.60
4052;DHT22;2040;50.924;11.604;2023-07-09T14:02:37;35.10;63.70
4052;DHT22;2040;50.924;11.604;2023-07-09T14:05:05;35.20;65.40
4052;DHT22;2040;50.924;11.604;2023-07-09T14:07:38;35.40;64.70
4052;DHT22;2040;50.924;11.604;2023-07-09T14:10:07;35.50;64.70
4052;DHT22;2040;50.924;11.604;2023-07-09T14:12:37;35.80;65.70
4052;DHT22;2040;50.924;11.604;2023-07-09T14:15:13;36.00;63.30
4052;DHT22;2040;50.924;11.604;2023-07-09T14:17:43;35.80;63.50
4052;DHT22;2040;50.924;11.604;2023-07-09T14:20:11;36.00;64.60
4052;DHT22;2040;50.924;11.604;2023-07-09T14:22:37;36.60;66.20
4052;DHT22;2040;50.924;11.604;2023-07-09T14:25:04;37.00;62.30
4052;DHT22;2040;50.924;11.604;2023-07-09T14:27:30;36.90;64.80
4052;DHT22;2040;50.924;11.604;2023-07-09T14:29:56;37.10;62.30
4052;DHT22;2040;50.924;11.604;2023-07-09T14:32:32;36.90;62.50
4052;DHT22;2040;50.924;11.604;2023-07-09T14:35:00;36.40;61.10
4052;DHT22;2040;50.924;11.604;2023-07-09T14:37:37;36.10;64.40
4052;DHT22;2040;50.924;11.604;2023-07-09T14:40:03;36.20;62.30
4052;DHT22;2040;50.924;11.604;2023-07-09T14:42:41;36.50;61.10
4052;DHT22;2040;50.924;11.604;2023-07-09T14:45:24;36.70;61.10
4052;DHT22;2040;50.924;11.604;2023-07-09T14:47:51;37.00;61.00
4052;DHT22;2040;50.924;11.604;2023-07-09T14:50:18;36.70;61.40
4052;DHT22;2040;50.924;11.604;2023-07-09T14:52:47;36.10;62.50
4052;DHT22;2040;50.924;11.604;2023-07-09T14:55:21;36.00;64.50
4052;DHT22;2040;50.924;11.604;2023-07-09T14:57:56;36.10;61.50
4052;DHT22;2040;50.924;11.604;2023-07-09T15:00:43;36.20;64.60
4052;DHT22;2040;50.924;11.604;2023-07-09T15:03:22;36.50;64.10
4052;DHT22;2040;50.924;11.604;2023-07-09T15:05:52;36.40;63.30
4052;DHT22;2040;50.924;11.604;2023-07-09T15:08:21;36.50;62.20
4052;DHT22;2040;50.924;11.604;2023-07-09T15:10:48;36.50;64.10
4052;DHT22;2040;50.924;11.604;2023-07-09T15:13:27;36.50;62.00
4052;DHT22;2040;50.924;11.604;2023-07-09T15:15:58;36.40;63.90
4052;DHT22;2040;50.924;11.604;2023-07-09T15:18:27;36.40;62.30
4052;DHT22;2040;50.924;11.604;2023-07-09T15:21:00;36.50;62.10
4052;DHT22;2040;50.924;11.604;2023-07-09T15:23:28;36.50;62.70
4052;DHT22;2040;50.924;11.604;2023-07-09T15:25:58;36.60;61.50
4052;DHT22;2040;50.924;11.604;2023-07-09T15:28:24;36.80;63.10
4052;DHT22;2040;50.924;11.604;2023-07-09T15:30:50;36.60;63.60
4052;DHT22;2040;50.924;11.604;2023-07-09T15:33:17;36.40;64.30
4052;DHT22;2040;50.924;11.604;2023-07-09T15:35:45;36.20;63.60
4052;DHT22;2040;50.924;11.604;2023-07-09T15:38:31;36.20;62.00
4052;DHT22;2040;50.924;11.604;2023-07-09T15:40:59;35.90;64.90
4052;DHT22;2040;50.924;11.604;2023-07-09T15:43:25;35.90;62.20
4052;DHT22;2040;50.924;11.604;2023-07-09T15:45:52;35.70;62.60
4052;DHT22;2040;50.924;11.604;2023-07-09T15:48:25;35.70;63.20
4052;DHT22;2040;50.924;11.604;2023-07-09T15:50:52;35.40;62.90
4052;DHT22;2040;50.924;11.604;2023-07-09T15:53:20;35.20;64.10
4052;DHT22;2040;50.924;11.604;2023-07-09T15:55:46;35.10;63.20
4052;DHT22;2040;50.924;11.604;2023-07-09T15:58:19;35.00;65.60
4052;DHT22;2040;50.924;11.604;2023-07-09T16:00:46;35.10;65.70
4052;DHT22;2040;50.924;11.604;2023-07-09T16:03:15;34.90;65.00
4052;DHT22;2040;50.924;11.604;2023-07-09T16:05:40;34.80;65.20
4052;DHT22;2040;50.924;11.604;2023-07-09T16:08:06;34.70;64.70
4052;DHT22;2040;50.924;11.604;2023-07-09T16:10:33;34.70;65.10
4052;DHT22;2040;50.924;11.604;2023-07-09T16:13:09;34.70;64.80
4052;DHT22;2040;50.924;11.604;2023-07-09T16:15:44;34.50;65.00
4052;DHT22;2040;50.924;11.604;2023-07-09T16:18:16;34.40;66.50
4052;DHT22;2040;50.924;11.604;2023-07-09T16:20:46;34.30;67.30
4052;DHT22;2040;50.924;11.604;2023-07-09T16:23:19;34.00;66.20